Time;durP1;ratioP1;P1;durP2;ratioP2;P2;SDS_P1;SDS_P2;PMS_P1;PMS_P2;Temp;Humidity;BMP_temperature;BMP_pressure;BME280_temperature;BME280_humidity;BME280_pressure;Samples;Min_cycle;Max_cycle;Signal;HPM_P1;HPM_P2
2023/08/27 00:03:46;;;;;;;13.40;11.13;;;16.40;99.90;;;17.10;100.00;97420.56;10277847;28;20223;-78
2023/08/27 00:08:51;;;;;;;12.50;11.50;;;16.50;99.90;;;17.13;100.00;97418.91;10272051;28;20290;-78
2023/08/27 00:13:55;;;;;;;13.07;11.32;;;16.50;99.90;;;17.15;100.00;97422.41;10290482;28;20249;-77
2023/08/27 00:18:58;;;;;;;12.70;11.18;;;16.50;99.90;;;17.21;100.00;97420.84;10270781;28;20239;-78
2023/08/27 00:24:04;;;;;;;12.98;11.75;;;16.60;99.90;;;17.08;100.00;97416.19;10267389;28;20612;-76
2023/08/27 00:29:07;;;;;;;10.07;9.27;;;16.50;99.90;;;16.93;100.00;97397.75;10267395;28;20302;-76
2023/08/27 00:34:10;;;;;;;9.13;8.23;;;16.30;99.90;;;17.08;100.00;97396.44;10261405;28;20242;-77
2023/08/27 00:39:14;;;;;;;7.82;7.07;;;16.30;99.90;;;17.09;100.00;97402.47;10269144;28;20999;-76
2023/08/27 00:44:18;;;;;;;8.75;7.97;;;16.30;99.90;;;16.99;100.00;97406.53;10290822;28;20315;-76
2023/08/27 00:49:21;;;;;;;9.13;8.43;;;16.30;99.90;;;17.09;100.00;97410.22;10290989;28;20241;-76
2023/08/27 00:54:26;;;;;;;10.75;9.88;;;16.30;99.90;;;16.98;100.00;97412.53;10281191;28;20713;-75
2023/08/27 00:59:29;;;;;;;11.70;10.80;;;16.30;99.90;;;17.04;100.00;97433.34;10277829;28;20232;-76
2023/08/27 01:04:33;;;;;;;13.15;11.82;;;16.40;99.90;;;16.93;100.00;97432.19;10272218;28;20228;-77
2023/08/27 01:09:47;;;;;;;11.55;10.55;;;16.30;99.90;;;17.01;100.00;97424.66;10276717;28;20232;-76
2023/08/27 01:14:52;;;;;;;9.95;9.05;;;16.40;99.90;;;17.07;100.00;97428.25;10296393;28;20238;-78
2023/08/27 01:19:56;;;;;;;11.32;10.32;;;16.40;99.90;;;17.15;100.00;97427.56;10287571;28;20343;-77
2023/08/27 01:25:01;;;;;;;12.07;10.25;;;16.40;99.90;;;17.04;100.00;97440.22;10274601;28;20228;-76
2023/08/27 01:30:14;;;;;;;8.65;8.00;;;16.40;99.90;;;17.02;100.00;97422.09;10271207;28;20232;-76
2023/08/27 01:35:17;;;;;;;8.82;8.02;;;16.40;99.90;;;17.26;100.00;97428.72;10273240;28;20231;-77
2023/08/27 01:40:21;;;;;;;8.05;7.40;;;16.50;99.90;;;17.04;100.00;97417.84;10270490;28;20227;-76
2023/08/27 01:45:25;;;;;;;7.20;6.50;;;16.30;99.90;;;16.94;100.00;97390.06;10287675;28;20230;-76
2023/08/27 01:50:28;;;;;;;7.32;6.72;;;16.30;99.90;;;16.96;100.00;97405.59;10299521;28;20740;-75
2023/08/27 01:55:33;;;;;;;6.60;6.10;;;16.20;99.90;;;16.98;100.00;97398.75;10290768;28;20242;-76
2023/08/27 02:00:36;;;;;;;7.40;6.80;;;16.30;99.90;;;17.08;100.00;97391.28;10272396;28;20224;-76
2023/08/27 02:05:40;;;;;;;7.40;6.80;;;16.40;99.90;;;16.92;100.00;97389.16;10293931;28;20318;-77
2023/08/27 02:10:44;;;;;;;7.63;7.03;;;16.30;99.90;;;17.13;100.00;97364.69;10277305;28;20219;-76
2023/08/27 02:15:47;;;;;;;8.18;7.57;;;16.40;99.90;;;17.21;100.00;97363.16;10286285;28;20607;-77
2023/08/27 02:20:50;;;;;;;7.90;7.28;;;16.40;99.90;;;17.21;100.00;97347.66;10288338;28;20228;-77
2023/08/27 02:25:55;;;;;;;8.13;7.43;;;16.50;99.90;;;17.24;100.00;97350.28;10274346;28;20224;-76
2023/08/27 02:30:58;;;;;;;6.95;6.35;;;16.50;99.90;;;17.06;100.00;97359.38;10268908;28;20230;-76
2023/08/27 02:36:01;;;;;;;7.07;5.90;;;16.40;99.90;;;17.15;100.00;97388.84;10291007;28;20314;-75
2023/08/27 02:41:06;;;;;;;7.63;6.80;;;16.50;99.90;;;17.29;100.00;97410.69;10287639;28;20235;-77
2023/08/27 02:46:09;;;;;;;7.82;7.22;;;16.50;99.90;;;17.33;100.00;97425.41;10270596;28;20241;-76
2023/08/27 02:51:12;;;;;;;8.75;7.93;;;16.50;99.90;;;17.22;100.00;97421.69;10281362;28;20319;-76
2023/08/27 02:56:17;;;;;;;8.68;7.97;;;16.50;99.90;;;17.38;100.00;97420.38;10275789;28;20876;-76
2023/08/27 03:01:21;;;;;;;9.27;8.00;;;16.50;99.90;;;17.33;100.00;97407.34;10267883;28;20267;-76
2023/08/27 03:06:24;;;;;;;9.05;8.20;;;16.50;99.90;;;17.39;100.00;97386.78;10268689;28;20236;-77
2023/08/27 03:11:28;;;;;;;9.43;8.52;;;16.50;99.90;;;17.45;100.00;97396.41;10285858;28;20242;-77
2023/08/27 03:16:32;;;;;;;8.15;7.53;;;16.60;99.90;;;17.36;100.00;97380.69;10274544;28;20604;-77
2023/08/27 03:21:35;;;;;;;9.93;9.02;;;16.60;99.90;;;17.19;100.00;97393.22;10268446;28;21084;-77
2023/08/27 03:26:39;;;;;;;8.32;7.63;;;16.60;99.90;;;17.21;100.00;97384.69;10312233;28;20231;-77
2023/08/27 03:31:44;;;;;;;10.02;9.18;;;16.60;99.90;;;17.18;100.00;97370.81;10266244;28;20311;-76
2023/08/27 03:36:47;;;;;;;10.60;9.60;;;16.50;99.90;;;16.92;100.00;97363.34;10267521;28;20223;-76
2023/08/27 03:41:52;;;;;;;10.10;9.25;;;16.40;99.90;;;16.92;100.00;97358.16;10310187;28;20231;-77
2023/08/27 03:46:55;;;;;;;9.77;8.82;;;16.40;99.90;;;16.91;100.00;97364.16;10268965;28;20234;-77
2023/08/27 03:51:58;;;;;;;9.68;8.82;;;16.40;99.90;;;17.02;100.00;97378.19;10271083;28;20254;-77
2023/08/27 03:57:03;;;;;;;13.93;10.50;;;16.40;99.90;;;17.20;100.00;97374.31;10269393;28;20220;-77
2023/08/27 04:02:06;;;;;;;10.45;9.65;;;16.40;99.90;;;17.20;100.00;97376.91;10266764;28;20239;-77
2023/08/27 04:07:10;;;;;;;10.55;9.65;;;16.40;99.90;;;17.15;100.00;97371.63;10285517;28;20254;-76
2023/08/27 04:12:14;;;;;;;10.48;9.55;;;16.50;99.90;;;17.14;100.00;97366.41;10272712;28;20250;-76
2023/08/27 04:17:17;;;;;;;9.48;8.65;;;16.40;99.90;;;16.91;100.00;97371.03;10283630;28;20227;-76
2023/08/27 04:22:21;;;;;;;11.25;10.23;;;16.40;99.90;;;16.75;100.00;97356.84;10291531;28;20909;-77
2023/08/27 04:27:25;;;;;;;12.02;11.10;;;16.30;99.90;;;16.65;100.00;97338.56;10280348;28;20235;-77
2023/08/27 04:32:28;;;;;;;10.98;10.05;;;16.20;99.90;;;16.67;100.00;97342.03;10298687;28;20306;-77
2023/08/27 04:37:31;;;;;;;12.85;11.68;;;16.30;99.90;;;16.77;100.00;97342.28;10299421;28;21108;-77
2023/08/27 04:42:36;;;;;;;10.00;9.10;;;16.30;99.90;;;16.81;100.00;97354.44;10298596;28;20231;-78
2023/08/27 04:47:39;;;;;;;10.43;9.63;;;16.40;99.90;;;16.88;100.00;97352.06;10311413;28;20613;-78
2023/08/27 04:52:42;;;;;;;10.85;9.85;;;16.50;99.90;;;16.95;100.00;97344.47;10281303;28;20222;-77
2023/08/27 04:57:47;;;;;;;10.57;9.77;;;16.50;99.90;;;17.02;100.00;97323.97;10289886;28;20318;-77
2023/08/27 05:02:50;;;;;;;11.48;10.48;;;16.50;99.90;;;16.90;100.00;97297.88;10279457;28;20228;-78
2023/08/27 05:07:54;;;;;;;9.63;8.88;;;16.40;99.90;;;16.73;100.00;97261.31;10297310;28;20231;-77
2023/08/27 05:12:59;;;;;;;10.60;9.70;;;16.30;99.90;;;16.85;100.00;97245.25;10280323;28;20226;-80
2023/08/27 05:18:03;;;;;;;13.23;12.15;;;16.40;99.90;;;16.74;100.00;97244.13;10271757;28;20625;-79
2023/08/27 05:23:06;;;;;;;11.05;9.88;;;16.30;99.90;;;16.80;100.00;97258.09;10286663;28;20785;-79
2023/08/27 05:28:11;;;;;;;10.32;9.38;;;16.40;99.90;;;16.87;100.00;97280.59;10269456;28;20232;-78
2023/08/27 05:33:14;;;;;;;12.02;10.93;;;16.50;99.90;;;17.10;100.00;97312.09;10311812;28;20238;-79
2023/08/27 05:38:17;;;;;;;12.05;10.85;;;16.60;99.90;;;17.27;100.00;97334.88;10265076;28;20231;-79
2023/08/27 05:43:23;;;;;;;11.15;10.15;;;16.60;99.90;;;17.17;100.00;97325.16;10270036;28;20905;-77
2023/08/27 05:48:27;;;;;;;9.90;9.00;;;16.70;99.90;;;17.13;100.00;97325.94;10288575;28;20947;-76
2023/08/27 05:53:30;;;;;;;11.55;10.60;;;16.70;99.90;;;17.07;100.00;97318.91;10283275;28;20224;-76
2023/08/27 05:58:35;;;;;;;12.02;10.98;;;16.60;99.90;;;17.18;100.00;97317.44;10279847;28;22557;-77
2023/08/27 06:03:38;;;;;;;12.32;11.23;;;16.70;99.90;;;17.40;100.00;97316.22;10278735;28;20240;-77
2023/08/27 06:08:41;;;;;;;11.57;10.45;;;16.80;99.90;;;17.42;100.00;97330.03;10260688;28;20231;-77
2023/08/27 06:13:46;;;;;;;10.60;9.60;;;16.80;99.90;;;17.43;100.00;97347.28;10290494;28;20253;-76
2023/08/27 06:18:49;;;;;;;10.95;9.77;;;16.90;99.90;;;17.33;100.00;97347.91;10261157;28;20231;-77
2023/08/27 06:23:52;;;;;;;10.05;9.23;;;16.90;99.90;;;17.41;100.00;97356.72;10256638;28;20243;-76
2023/08/27 06:28:57;;;;;;;11.35;10.35;;;16.90;99.90;;;17.46;100.00;97344.78;10275172;28;20236;-77
2023/08/27 06:34:00;;;;;;;10.50;9.70;;;16.90;99.90;;;17.52;100.00;97347.47;10299571;28;20322;-77
2023/08/27 06:39:03;;;;;;;10.88;9.98;;;17.00;99.90;;;17.56;100.00;97351.88;10269959;28;20232;-78
2023/08/27 06:44:08;;;;;;;10.55;9.55;;;17.00;99.90;;;17.76;100.00;97343.66;10259309;28;20330;-77
2023/08/27 06:49:11;;;;;;;10.63;9.70;;;17.10;99.90;;;17.91;100.00;97356.94;10273473;28;20227;-77
2023/08/27 06:54:14;;;;;;;10.02;9.18;;;17.20;99.90;;;17.92;100.00;97368.16;10256751;28;20238;-76
2023/08/27 06:59:19;;;;;;;10.82;9.65;;;17.20;99.90;;;17.95;100.00;97376.84;10287056;28;20314;-79
2023/08/27 07:04:22;;;;;;;9.23;8.48;;;17.30;99.90;;;18.05;100.00;97377.03;10270545;28;20238;-76
2023/08/27 07:09:25;;;;;;;9.25;8.48;;;17.30;99.90;;;18.00;100.00;97390.75;10290416;28;20230;-76
2023/08/27 07:14:30;;;;;;;9.85;9.05;;;17.30;99.90;;;18.08;100.00;97390.00;10279084;28;20224;-75
2023/08/27 07:19:33;;;;;;;10.43;9.43;;;17.40;99.90;;;17.99;100.00;97375.19;10296402;28;20239;-77
2023/08/27 07:24:36;;;;;;;9.90;9.10;;;17.40;99.90;;;17.91;100.00;97384.50;10278365;28;20585;-76
2023/08/27 07:29:41;;;;;;;10.27;9.27;;;17.30;99.90;;;17.91;100.00;97368.97;10274788;28;20242;-76
2023/08/27 07:34:44;;;;;;;9.05;8.35;;;17.30;99.90;;;18.02;100.00;97355.41;10271861;28;20631;-75
2023/08/27 07:39:47;;;;;;;9.05;8.27;;;17.50;99.90;;;18.28;100.00;97346.41;10304890;28;20235;-76
2023/08/27 07:44:52;;;;;;;7.90;7.20;;;17.70;99.90;;;18.30;100.00;97349.91;10283167;28;20228;-76
2023/08/27 07:49:55;;;;;;;8.10;7.50;;;17.70;99.90;;;18.47;100.00;97364.03;10266594;28;20254;-76
2023/08/27 07:54:58;;;;;;;7.80;7.18;;;17.80;99.90;;;18.61;100.00;97356.50;10285436;28;20222;-76
2023/08/27 08:00:04;;;;;;;7.18;6.47;;;17.80;99.90;;;18.78;100.00;97355.09;10285253;28;20788;-76
2023/08/27 08:05:09;;;;;;;8.20;7.50;;;17.90;99.90;;;18.80;100.00;97342.16;10292044;28;20228;-75
2023/08/27 08:10:12;;;;;;;7.63;6.95;;;18.10;99.90;;;19.02;100.00;97349.44;10295457;28;20238;-75
2023/08/27 08:15:17;;;;;;;6.80;6.25;;;18.30;99.90;;;19.12;100.00;97356.53;10268712;28;20850;-75
2023/08/27 08:20:21;;;;;;;6.30;5.80;;;18.40;99.90;;;19.28;100.00;97388.69;10266150;28;20242;-75
2023/08/27 08:25:25;;;;;;;6.97;6.45;;;18.50;99.90;;;19.23;100.00;97397.25;10272090;28;20228;-76
2023/08/27 08:30:29;;;;;;;5.85;5.45;;;18.50;99.90;;;19.27;100.00;97419.78;10256481;28;20247;-76
2023/08/27 08:35:32;;;;;;;4.82;4.43;;;18.50;99.90;;;19.44;100.00;97435.59;10286672;28;20239;-76
2023/08/27 08:40:40;;;;;;;4.78;4.38;;;18.60;99.90;;;19.37;100.00;97444.97;10263400;28;20231;-76
2023/08/27 08:45:53;;;;;;;6.75;5.00;;;18.60;99.90;;;19.28;100.00;97453.50;10262774;28;20810;-76
2023/08/27 08:50:58;;;;;;;3.92;3.63;;;18.60;99.90;;;19.33;100.00;97445.81;10261770;28;20788;-76
2023/08/27 08:56:06;;;;;;;5.85;4.10;;;18.70;99.90;;;19.32;100.00;97431.97;10282839;28;20322;-77
2023/08/27 09:01:12;;;;;;;4.43;4.13;;;18.70;99.90;;;19.44;100.00;97409.69;10257937;28;20356;-77
2023/08/27 09:06:18;;;;;;;4.63;4.22;;;18.70;99.90;;;19.38;100.00;97397.50;10267362;28;20326;-75
2023/08/27 09:11:21;;;;;;;4.03;3.70;;;18.70;99.90;;;19.83;100.00;97408.50;10267836;28;20337;-76
2023/08/27 09:16:27;;;;;;;3.58;3.28;;;19.00;99.90;;;19.98;100.00;97387.97;10268921;28;20228;-78
2023/08/27 09:21:30;;;;;;;4.30;3.42;;;19.10;99.90;;;19.97;100.00;97386.22;10271511;28;20728;-78
2023/08/27 09:26:33;;;;;;;4.03;3.72;;;19.20;99.90;;;20.08;98.59;97374.25;10294015;28;20230;-77
2023/08/27 09:31:40;;;;;;;3.70;3.25;;;19.10;99.90;;;19.98;99.96;97369.81;10292130;28;20264;-77
2023/08/27 09:36:43;;;;;;;3.72;2.72;;;19.20;99.90;;;20.18;99.58;97385.63;10283275;28;20278;-76
2023/08/27 09:41:47;;;;;;;4.38;3.10;;;19.40;99.90;;;20.53;100.00;97385.16;10295485;28;20224;-77
2023/08/27 09:47:04;;;;;;;3.97;2.90;;;19.70;99.90;;;20.81;94.39;97392.34;10281264;28;20239;-77
2023/08/27 09:52:08;;;;;;;3.15;2.95;;;19.80;99.90;;;20.51;96.39;97385.09;10277238;28;20240;-76
2023/08/27 09:57:18;;;;;;;3.40;3.10;;;19.60;99.90;;;20.25;98.51;97358.88;10280357;28;20228;-77
2023/08/27 10:02:23;;;;;;;3.17;2.78;;;19.30;99.90;;;20.12;99.92;97354.41;10263205;28;20250;-76
2023/08/27 10:07:26;;;;;;;3.42;3.00;;;19.20;99.90;;;20.07;100.00;97356.94;10257644;28;20232;-78
2023/08/27 10:12:30;;;;;;;3.05;2.85;;;19.20;99.90;;;20.22;100.00;97372.69;10304273;28;20235;-76
2023/08/27 10:17:36;;;;;;;2.83;2.63;;;19.30;99.90;;;20.37;98.25;97371.97;10289953;28;20243;-77
2023/08/27 10:22:40;;;;;;;3.05;2.75;;;19.50;99.90;;;20.51;96.80;97373.84;10266645;28;20243;-76
2023/08/27 10:27:45;;;;;;;2.92;2.63;;;19.70;99.90;;;20.70;94.54;97366.28;10277268;28;20231;-76
2023/08/27 10:32:49;;;;;;;3.50;2.85;;;19.80;99.90;;;20.84;93.63;97362.94;10262436;28;20231;-76
2023/08/27 10:37:56;;;;;;;3.60;2.63;;;19.80;99.90;;;20.95;89.62;97358.72;10255257;28;20234;-77
2023/08/27 10:43:16;;;;;;;2.85;2.67;;;19.80;99.90;;;20.79;92.04;97354.22;10266059;28;20233;-76
2023/08/27 10:48:30;;;;;;;2.70;2.42;;;19.80;99.90;;;21.23;88.90;97353.69;10278206;28;20241;-77
2023/08/27 10:53:40;;;;;;;3.03;2.40;;;20.30;99.90;;;21.47;85.21;97353.91;10268185;28;20921;-75
2023/08/27 10:58:44;;;;;;;2.65;2.45;;;20.40;99.90;;;21.67;84.91;97368.75;10266176;28;20235;-77
2023/08/27 11:04:00;;;;;;;2.78;2.45;;;20.50;99.90;;;21.61;85.31;97371.31;10254920;28;21060;-75
2023/08/27 11:09:17;;;;;;;2.83;2.50;;;20.50;99.90;;;21.14;89.04;97351.91;10273934;28;20357;-75
2023/08/27 11:14:26;;;;;;;2.90;2.45;;;20.30;99.90;;;21.10;88.35;97348.41;10267638;28;20768;-77
2023/08/27 11:19:34;;;;;;;3.10;2.90;;;20.00;99.90;;;21.20;88.63;97356.28;10255311;28;20729;-76
2023/08/27 11:24:42;;;;;;;2.67;2.47;;;20.20;99.90;;;20.95;88.96;97356.09;10278944;28;20590;-78
2023/08/27 11:29:49;;;;;;;3.08;2.75;;;20.00;99.90;;;20.82;90.82;97369.84;10271761;28;20257;-75
2023/08/27 11:34:54;;;;;;;3.15;2.85;;;19.90;99.90;;;20.80;90.53;97355.97;10260366;28;20312;-76
2023/08/27 11:39:57;;;;;;;3.17;2.80;;;19.90;99.90;;;20.84;90.24;97360.34;10269241;28;20232;-75
2023/08/27 11:45:01;;;;;;;2.50;2.40;;;19.80;99.90;;;21.03;88.12;97375.22;10269091;28;20227;-75
2023/08/27 11:50:10;;;;;;;3.80;2.65;;;20.00;99.90;;;21.32;85.50;97366.78;10260285;28;20844;-75
2023/08/27 11:55:20;;;;;;;3.42;3.13;;;20.20;99.90;;;21.42;85.21;97355.59;10272714;28;20228;-77
2023/08/27 12:00:26;;;;;;;2.58;2.38;;;20.40;99.90;;;21.54;86.46;97363.44;10263185;28;20233;-76
2023/08/27 12:05:33;;;;;;;2.75;2.53;;;20.60;99.90;;;21.68;82.75;97360.94;10292872;28;20239;-77
2023/08/27 12:10:44;;;;;;;2.50;2.30;;;20.70;99.90;;;22.00;80.83;97360.19;10259098;28;20234;-76
2023/08/27 12:15:47;;;;;;;3.03;2.72;;;21.00;99.90;;;21.86;83.72;97354.06;10273103;28;20255;-77
2023/08/27 12:20:52;;;;;;;2.90;2.70;;;20.80;99.90;;;21.65;85.18;97363.53;10252334;28;21628;-77
2023/08/27 12:25:58;;;;;;;3.13;2.78;;;20.60;99.90;;;21.84;83.58;97366.22;10266599;28;20228;-77
2023/08/27 12:31:01;;;;;;;3.10;2.90;;;20.80;99.90;;;21.57;85.81;97368.66;10277586;28;20232;-77
2023/08/27 12:36:07;;;;;;;3.20;2.65;;;20.60;99.90;;;21.41;86.02;97355.59;10260674;28;20231;-78
2023/08/27 12:41:10;;;;;;;3.55;2.55;;;20.40;99.90;;;21.14;87.65;97357.97;10261414;28;20621;-77
2023/08/27 12:46:13;;;;;;;2.72;2.53;;;20.20;99.90;;;21.02;88.20;97357.88;10266384;28;20242;-77
2023/08/27 12:51:18;;;;;;;2.72;2.45;;;20.10;99.90;;;21.01;87.62;97366.53;10278193;28;20246;-77
2023/08/27 12:56:21;;;;;;;3.42;3.22;;;20.00;99.90;;;21.08;88.64;97368.31;10256626;28;20231;-76
2023/08/27 13:01:24;;;;;;;3.60;3.30;;;20.00;99.90;;;21.05;89.26;97359.63;10302523;28;20236;-78
2023/08/27 13:06:29;;;;;;;2.97;2.78;;;20.00;99.90;;;21.04;88.37;97356.16;10285985;28;20239;-78
2023/08/27 13:11:32;;;;;;;3.83;2.92;;;20.00;99.90;;;21.07;88.50;97351.00;10283191;28;20370;-79
2023/08/27 13:16:38;;;;;;;3.30;3.00;;;20.20;99.90;;;20.79;90.87;97349.91;10287620;28;20310;-79
2023/08/27 13:21:44;;;;;;;3.13;2.83;;;19.90;99.90;;;20.76;88.99;97341.22;10290415;28;20234;-78
2023/08/27 13:26:48;;;;;;;3.17;2.85;;;19.70;99.90;;;20.78;89.45;97345.56;10298650;28;20223;-80
2023/08/27 13:31:56;;;;;;;3.50;2.80;;;19.70;99.90;;;20.56;91.19;97341.03;10290404;28;20354;-78
2023/08/27 13:37:01;;;;;;;2.80;2.60;;;19.70;99.90;;;20.69;91.83;97342.91;10305997;28;20334;-80
2023/08/27 13:42:05;;;;;;;2.80;2.60;;;19.80;99.90;;;20.48;93.74;97354.78;10289415;28;20262;-80
2023/08/27 13:47:08;;;;;;;4.88;4.28;;;19.70;99.90;;;20.38;94.39;97349.50;10298570;28;21279;-78
2023/08/27 13:52:15;;;;;;;3.30;3.00;;;19.50;99.90;;;20.15;95.25;97365.69;10314086;28;20322;-80
2023/08/27 13:57:19;;;;;;;2.70;2.50;;;19.30;99.90;;;20.05;98.00;97368.16;10278803;28;20614;-80
2023/08/27 14:02:22;;;;;;;3.15;2.85;;;19.40;99.90;;;19.98;100.00;97352.53;10314326;28;20318;-79
2023/08/27 14:07:28;;;;;;;2.90;2.70;;;19.40;99.90;;;19.90;100.00;97345.50;10278037;28;20240;-79
2023/08/27 14:12:32;;;;;;;3.03;2.83;;;19.40;99.90;;;19.85;100.00;97357.53;10294737;28;20318;-78
2023/08/27 14:17:35;;;;;;;3.17;2.95;;;19.30;99.90;;;19.61;100.00;97360.66;10308272;28;20250;-80
2023/08/27 14:22:39;;;;;;;3.50;2.90;;;19.10;99.90;;;19.54;100.00;97359.69;10275340;28;20651;-79
2023/08/27 14:27:43;;;;;;;2.92;2.72;;;19.00;99.90;;;19.55;100.00;97357.13;10273703;28;20251;-80
2023/08/27 14:32:46;;;;;;;4.05;2.70;;;19.10;99.90;;;19.55;100.00;97349.34;10287001;28;20254;-78
2023/08/27 14:37:51;;;;;;;3.22;2.92;;;19.00;99.90;;;19.68;100.00;97337.44;10280971;28;20616;-79
2023/08/27 14:42:54;;;;;;;2.90;2.70;;;19.10;99.90;;;19.76;99.66;97342.72;10282451;28;20223;-80
2023/08/27 14:47:57;;;;;;;3.28;3.05;;;19.20;99.90;;;19.89;100.00;97341.19;10301212;28;20747;-78
2023/08/27 14:53:05;;;;;;;3.95;3.13;;;19.30;99.90;;;19.92;100.00;97352.44;10272925;28;20796;-78
2023/08/27 14:58:08;;;;;;;4.57;3.50;;;19.40;99.90;;;20.08;98.98;97363.00;10272646;28;20235;-79
2023/08/27 15:03:11;;;;;;;4.40;3.70;;;19.40;99.90;;;20.24;98.58;97373.56;10278825;28;20227;-82
2023/08/27 15:08:16;;;;;;;3.20;2.90;;;19.60;99.90;;;20.30;98.42;97385.75;10270083;28;20224;-80
2023/08/27 15:13:19;;;;;;;3.25;2.95;;;19.60;99.90;;;20.33;98.10;97385.78;10273665;28;20238;-81
2023/08/27 15:18:22;;;;;;;3.80;2.80;;;19.60;99.90;;;20.46;93.98;97373.81;10272999;28;20240;-81
2023/08/27 15:23:27;;;;;;;2.40;2.20;;;19.70;99.90;;;20.53;92.83;97373.03;10273438;28;20228;-79
2023/08/27 15:28:30;;;;;;;3.30;2.40;;;19.80;99.90;;;20.53;93.20;97372.19;10292087;28;20228;-81
2023/08/27 15:33:34;;;;;;;2.47;2.28;;;19.70;99.90;;;20.51;93.32;97371.25;10278085;28;20227;-81
2023/08/27 15:38:38;;;;;;;2.88;2.67;;;19.70;99.90;;;20.48;93.24;97385.06;10287624;28;20227;-81
2023/08/27 15:43:43;;;;;;;3.00;2.70;;;19.70;99.90;;;20.41;94.79;97398.84;10287038;28;20227;-78
2023/08/27 15:48:46;;;;;;;3.75;2.00;;;19.70;99.90;;;19.52;93.07;97424.50;10314201;28;20242;-80
2023/08/27 15:53:51;;;;;;;2.40;2.20;;;18.90;99.90;;;18.01;100.00;97439.03;10279132;28;20224;-79
2023/08/27 15:58:55;;;;;;;2.70;2.50;;;17.60;99.90;;;17.49;100.00;97448.19;10277306;28;20313;-80
2023/08/27 16:03:58;;;;;;;2.72;2.53;;;17.00;99.90;;;17.37;100.00;97455.66;10273506;28;22281;-79
2023/08/27 16:09:03;;;;;;;4.78;2.83;;;16.80;99.90;;;17.22;100.00;97450.13;10262676;28;20309;-80
2023/08/27 16:14:07;;;;;;;3.25;2.95;;;16.70;99.90;;;17.09;100.00;97449.81;10280249;28;20700;-80
2023/08/27 16:19:10;;;;;;;3.25;2.80;;;16.70;99.90;;;17.05;100.00;97458.34;10290125;28;20231;-78
2023/08/27 16:24:14;;;;;;;3.88;2.97;;;16.70;99.90;;;17.10;100.00;97445.53;10303462;28;20231;-80
2023/08/27 16:29:17;;;;;;;4.40;4.00;;;16.70;99.90;;;17.06;100.00;97454.03;10289288;28;20223;-80
2023/08/27 16:34:21;;;;;;;4.22;3.85;;;16.60;99.90;;;17.13;100.00;97449.91;10282021;28;21692;-79
2023/08/27 16:39:25;;;;;;;4.18;3.78;;;16.70;99.90;;;17.03;100.00;97447.09;10281032;28;20230;-79
2023/08/27 16:44:29;;;;;;;4.00;3.70;;;16.60;99.90;;;17.03;100.00;97457.41;10290243;28;20689;-79
2023/08/27 16:49:32;;;;;;;4.43;3.58;;;16.60;99.90;;;16.93;100.00;97439.94;10276284;28;20230;-79
2023/08/27 16:54:36;;;;;;;3.72;3.42;;;16.50;99.90;;;16.85;100.00;97444.03;10271881;28;20236;-79
2023/08/27 16:59:39;;;;;;;3.40;2.95;;;16.40;99.90;;;16.84;100.00;97452.63;10279523;28;20306;-81
2023/08/27 17:04:43;;;;;;;4.30;3.90;;;16.30;99.90;;;16.86;100.00;97454.41;10272410;28;20850;-80
2023/08/27 17:09:47;;;;;;;4.10;3.80;;;16.40;99.90;;;16.89;100.00;97463.94;10271178;28;20232;-79
2023/08/27 17:14:50;;;;;;;5.50;4.70;;;16.50;99.90;;;16.99;100.00;97468.50;10284854;28;20228;-78
2023/08/27 17:19:55;;;;;;;5.10;4.40;;;16.50;99.90;;;17.00;100.00;97459.94;10278780;28;20240;-78
2023/08/27 17:25:00;;;;;;;4.90;4.50;;;16.60;99.90;;;16.91;100.00;97456.22;10282395;28;20228;-79
2023/08/27 17:30:04;;;;;;;5.10;4.70;;;16.40;99.90;;;16.87;100.00;97460.44;10282630;28;20613;-78
2023/08/27 17:35:08;;;;;;;5.28;4.68;;;16.50;99.90;;;16.94;100.00;97479.53;10281610;28;20243;-79
2023/08/27 17:40:13;;;;;;;6.70;4.90;;;16.50;99.90;;;16.99;100.00;97483.13;10289563;28;20265;-80
2023/08/27 17:45:17;;;;;;;6.00;4.75;;;16.50;99.90;;;17.01;100.00;97477.16;10293597;28;20690;-78
2023/08/27 17:50:20;;;;;;;5.65;5.20;;;16.50;99.90;;;16.97;100.00;97485.69;10280199;28;20731;-79
2023/08/27 17:55:25;;;;;;;5.57;5.03;;;16.50;99.90;;;16.91;100.00;97493.22;10275383;28;20220;-78
2023/08/27 18:00:28;;;;;;;5.10;4.60;;;16.30;99.90;;;16.85;100.00;97488.81;10282038;28;20315;-79
2023/08/27 18:05:31;;;;;;;5.13;4.63;;;16.40;99.90;;;16.88;100.00;97499.22;10278697;28;20233;-79
2023/08/27 18:10:36;;;;;;;4.95;4.65;;;16.40;99.90;;;16.86;100.00;97507.75;10279164;28;20287;-78
2023/08/27 18:15:39;;;;;;;5.93;4.60;;;16.40;99.90;;;16.87;100.00;97514.66;10280518;28;20298;-78
2023/08/27 18:20:43;;;;;;;4.97;4.47;;;16.30;99.90;;;16.94;100.00;97514.00;10263740;28;20235;-78
2023/08/27 18:25:47;;;;;;;5.88;4.30;;;16.40;99.90;;;16.79;100.00;97511.00;10280983;28;20232;-79
2023/08/27 18:30:50;;;;;;;4.43;4.03;;;16.30;99.90;;;16.76;100.00;97526.38;10264903;28;20234;-78
2023/08/27 18:35:53;;;;;;;4.85;4.05;;;16.20;99.90;;;16.78;100.00;97529.91;10282716;28;20234;-80
2023/08/27 18:40:58;;;;;;;5.43;4.07;;;16.20;99.90;;;16.59;100.00;97538.78;10266257;28;20238;-80
2023/08/27 18:46:01;;;;;;;4.10;3.70;;;16.10;99.90;;;16.62;100.00;97544.03;10278358;28;20234;-78
2023/08/27 18:51:05;;;;;;;4.28;3.88;;;16.10;99.90;;;16.61;100.00;97548.34;10261090;28;22203;-78
2023/08/27 18:56:09;;;;;;;4.78;4.32;;;16.10;99.90;;;16.57;100.00;97561.13;10269042;28;20236;-80
2023/08/27 19:01:12;;;;;;;5.32;4.63;;;16.10;99.90;;;16.40;100.00;97568.38;10285268;28;20713;-80
2023/08/27 19:06:16;;;;;;;6.15;4.57;;;16.00;99.90;;;16.45;100.00;97569.34;10266006;28;20342;-79
2023/08/27 19:11:21;;;;;;;4.38;4.07;;;16.00;99.90;;;16.41;100.00;97575.25;10273316;28;20231;-80
2023/08/27 19:16:24;;;;;;;5.15;4.32;;;15.90;99.90;;;16.45;100.00;97582.25;10284706;28;20739;-78
2023/08/27 19:21:28;;;;;;;4.80;4.28;;;15.90;99.90;;;16.50;100.00;97593.59;10287644;28;20795;-80
2023/08/27 19:26:32;;;;;;;4.88;4.10;;;16.00;99.90;;;16.56;100.00;97591.19;10279371;28;20862;-78
2023/08/27 19:31:35;;;;;;;6.40;4.32;;;16.00;99.90;;;16.45;100.00;97595.16;10273968;28;20302;-76
2023/08/27 19:36:49;;;;;;;5.72;4.05;;;15.90;99.90;;;16.42;100.00;97583.06;10274000;28;20323;-77
2023/08/27 19:41:53;;;;;;;4.25;3.85;;;15.90;99.90;;;16.35;100.00;97595.72;10271984;28;20679;-78
2023/08/27 19:46:57;;;;;;;4.50;4.10;;;15.80;99.90;;;16.33;100.00;97584.47;10274370;28;20781;-76
2023/08/27 19:52:00;;;;;;;4.60;4.30;;;15.80;99.90;;;16.36;100.00;97597.47;10272372;28;20227;-77
2023/08/27 19:57:05;;;;;;;4.35;3.83;;;15.80;99.90;;;16.30;100.00;97586.97;10276185;28;20628;-76
2023/08/27 20:02:09;;;;;;;5.95;4.18;;;15.70;99.90;;;16.30;100.00;97602.44;10290703;28;20238;-78
2023/08/27 20:07:12;;;;;;;5.53;4.90;;;15.80;99.90;;;16.32;100.00;97616.28;10274789;28;20291;-77
2023/08/27 20:12:17;;;;;;;4.72;4.28;;;15.80;99.90;;;16.33;100.00;97608.56;10291324;28;20262;-77
2023/08/27 20:17:20;;;;;;;4.68;4.15;;;15.80;99.90;;;16.36;100.00;97605.22;10273324;28;20242;-77
2023/08/27 20:22:24;;;;;;;4.80;4.05;;;15.80;99.90;;;16.30;100.00;97620.50;10292842;28;20234;-76
2023/08/27 20:27:28;;;;;;;4.30;4.00;;;15.70;99.90;;;16.32;100.00;97624.00;10270767;28;20231;-77
2023/08/27 20:32:31;;;;;;;5.97;4.40;;;15.70;99.90;;;16.22;100.00;97630.56;10274329;28;20228;-77
2023/08/27 20:37:35;;;;;;;4.63;3.97;;;15.60;99.90;;;16.22;100.00;97628.00;10274348;28;20228;-78
2023/08/27 20:42:41;;;;;;;4.63;4.20;;;15.60;99.90;;;16.31;100.00;97629.97;10282834;28;20603;-78
2023/08/27 20:47:44;;;;;;;5.22;4.63;;;15.70;99.90;;;16.24;100.00;97633.22;10270352;28;20235;-76
2023/08/27 20:52:48;;;;;;;4.45;4.05;;;15.60;99.90;;;16.18;100.00;97632.19;10263199;28;20306;-77